sensor_id;sensor_type;location;lat;lon;timestamp;pressure;altitude;pressure_sealevel;temperature;humidity
80798;BME280;70202;52.238;10.680;2024-03-02T00:00:26;98986.38;;;10.50;83.91
80798;BME280;70202;52.238;10.680;2024-03-02T00:01:27;98986.97;;;10.55;83.75
80798;BME280;70202;52.238;10.680;2024-03-02T00:02:27;98929.34;;;10.17;83.60
80798;BME280;70202;52.238;10.680;2024-03-02T00:03:28;99066.59;;;11.05;83.78
80798;BME280;70202;52.238;10.680;2024-03-02T00:04:28;98956.97;;;10.41;84.04
80798;BME280;70202;52.238;10.680;2024-03-02T00:05:28;98933.63;;;10.21;83.71
80798;BME280;70202;52.238;10.680;2024-03-02T00:06:29;98998.56;;;10.59;83.82
80798;BME280;70202;52.238;10.680;2024-03-02T00:07:29;99048.97;;;10.96;83.83
80798;BME280;70202;52.238;10.680;2024-03-02T00:08:30;98989.50;;;10.58;84.07
80798;BME280;70202;52.238;10.680;2024-03-02T00:09:30;99072.81;;;11.07;84.10
80798;BME280;70202;52.238;10.680;2024-03-02T00:10:40;99069.81;;;11.11;84.05
80798;BME280;70202;52.238;10.680;2024-03-02T00:11:40;98969.16;;;10.49;83.86
80798;BME280;70202;52.238;10.680;2024-03-02T00:12:41;98956.50;;;10.48;83.98
80798;BME280;70202;52.238;10.680;2024-03-02T00:13:42;99053.91;;;11.04;84.46
80798;BME280;70202;52.238;10.680;2024-03-02T00:14:42;99060.94;;;11.08;83.87
80798;BME280;70202;52.238;10.680;2024-03-02T00:15:47;99034.53;;;10.94;83.96
80798;BME280;70202;52.238;10.680;2024-03-02T00:16:48;98901.44;;;10.13;83.51
80798;BME280;70202;52.238;10.680;2024-03-02T00:17:53;99064.34;;;11.11;84.04
80798;BME280;70202;52.238;10.680;2024-03-02T00:18:53;99058.22;;;11.08;83.97
80798;BME280;70202;52.238;10.680;2024-03-02T00:19:54;99048.69;;;11.00;84.02
80798;BME280;70202;52.238;10.680;2024-03-02T00:20:55;98978.09;;;10.51;83.88
80798;BME280;70202;52.238;10.680;2024-03-02T00:22:00;99063.66;;;11.08;84.37
80798;BME280;70202;52.238;10.680;2024-03-02T00:23:06;99060.06;;;11.07;83.96
80798;BME280;70202;52.238;10.680;2024-03-02T00:24:21;99065.50;;;11.07;84.32
80798;BME280;70202;52.238;10.680;2024-03-02T00:25:21;99038.31;;;10.91;84.08
80798;BME280;70202;52.238;10.680;2024-03-02T00:26:22;99044.38;;;10.96;84.06
80798;BME280;70202;52.238;10.680;2024-03-02T00:27:22;99032.72;;;10.79;84.31
80798;BME280;70202;52.238;10.680;2024-03-02T00:28:30;99047.63;;;10.87;83.93
80798;BME280;70202;52.238;10.680;2024-03-02T00:29:34;99051.59;;;10.97;84.42
80798;BME280;70202;52.238;10.680;2024-03-02T00:30:43;99061.03;;;11.06;84.07
80798;BME280;70202;52.238;10.680;2024-03-02T00:31:46;99012.06;;;10.60;84.30
80798;BME280;70202;52.238;10.680;2024-03-02T00:32:48;99064.63;;;11.07;84.14
80798;BME280;70202;52.238;10.680;2024-03-02T00:33:53;99049.72;;;10.98;84.23
80798;BME280;70202;52.238;10.680;2024-03-02T00:34:53;99076.41;;;11.07;83.80
80798;BME280;70202;52.238;10.680;2024-03-02T00:35:54;98964.75;;;10.47;83.70
80798;BME280;70202;52.238;10.680;2024-03-02T00:36:57;99062.97;;;11.04;83.88
80798;BME280;70202;52.238;10.680;2024-03-02T00:38:04;98975.66;;;10.47;83.43
80798;BME280;70202;52.238;10.680;2024-03-02T00:39:06;99004.34;;;10.52;83.35
80798;BME280;70202;52.238;10.680;2024-03-02T00:40:08;98999.97;;;10.50;83.30
80798;BME280;70202;52.238;10.680;2024-03-02T00:41:16;99066.81;;;10.86;84.24
80798;BME280;70202;52.238;10.680;2024-03-02T00:42:17;99063.31;;;10.84;83.60
80798;BME280;70202;52.238;10.680;2024-03-02T00:43:38;99063.59;;;10.79;83.90
80798;BME280;70202;52.238;10.680;2024-03-02T00:44:39;99051.59;;;10.67;83.61
80798;BME280;70202;52.238;10.680;2024-03-02T00:45:40;98943.06;;;9.99;83.65
80798;BME280;70202;52.238;10.680;2024-03-02T00:46:42;99036.06;;;10.54;84.21
80798;BME280;70202;52.238;10.680;2024-03-02T00:47:43;98974.63;;;10.18;84.31
80798;BME280;70202;52.238;10.680;2024-03-02T00:48:54;99063.44;;;10.66;84.35
80798;BME280;70202;52.238;10.680;2024-03-02T00:49:55;99052.13;;;10.58;84.43
80798;BME280;70202;52.238;10.680;2024-03-02T00:50:56;98973.47;;;10.06;84.89
80798;BME280;70202;52.238;10.680;2024-03-02T00:51:56;99045.97;;;10.55;84.37
80798;BME280;70202;52.238;10.680;2024-03-02T00:52:57;99049.47;;;10.57;84.87
80798;BME280;70202;52.238;10.680;2024-03-02T00:54:01;99062.81;;;10.61;84.60
80798;BME280;70202;52.238;10.680;2024-03-02T00:55:04;99060.38;;;10.57;84.42
80798;BME280;70202;52.238;10.680;2024-03-02T00:56:09;99059.31;;;10.59;84.94
80798;BME280;70202;52.238;10.680;2024-03-02T00:57:10;99065.03;;;10.55;84.30
80798;BME280;70202;52.238;10.680;2024-03-02T00:58:12;99054.50;;;10.48;84.39
80798;BME280;70202;52.238;10.680;2024-03-02T00:59:12;99016.88;;;10.25;84.90
80798;BME280;70202;52.238;10.680;2024-03-02T01:00:13;99061.72;;;10.49;84.65
80798;BME280;70202;52.238;10.680;2024-03-02T01:01:15;98938.44;;;9.70;84.68
80798;BME280;70202;52.238;10.680;2024-03-02T01:02:16;99018.72;;;10.24;84.76
80798;BME280;70202;52.238;10.680;2024-03-02T01:03:16;98963.59;;;9.89;84.90
80798;BME280;70202;52.238;10.680;2024-03-02T01:04:17;99049.53;;;10.41;85.10
80798;BME280;70202;52.238;10.680;2024-03-02T01:05:17;99053.72;;;10.46;85.49
80798;BME280;70202;52.238;10.680;2024-03-02T01:06:18;99050.03;;;10.47;85.13
80798;BME280;70202;52.238;10.680;2024-03-02T01:07:18;98970.97;;;9.87;85.17
80798;BME280;70202;52.238;10.680;2024-03-02T01:08:19;99015.09;;;10.24;85.54
80798;BME280;70202;52.238;10.680;2024-03-02T01:09:19;98967.81;;;9.95;85.45
80798;BME280;70202;52.238;10.680;2024-03-02T01:10:20;99037.06;;;10.37;85.25
80798;BME280;70202;52.238;10.680;2024-03-02T01:11:20;99040.22;;;10.45;85.77
80798;BME280;70202;52.238;10.680;2024-03-02T01:12:22;98942.91;;;9.87;85.03
80798;BME280;70202;52.238;10.680;2024-03-02T01:13:22;98992.53;;;10.06;85.80
80798;BME280;70202;52.238;10.680;2024-03-02T01:14:26;98981.59;;;10.08;85.54
80798;BME280;70202;52.238;10.680;2024-03-02T01:15:26;99007.63;;;10.27;85.63
80798;BME280;70202;52.238;10.680;2024-03-02T01:16:27;98937.47;;;9.87;85.45
80798;BME280;70202;52.238;10.680;2024-03-02T01:17:27;98954.22;;;9.95;85.34
80798;BME280;70202;52.238;10.680;2024-03-02T01:18:28;99039.03;;;10.49;85.43
80798;BME280;70202;52.238;10.680;2024-03-02T01:19:28;99010.19;;;10.31;85.48
80798;BME280;70202;52.238;10.680;2024-03-02T01:20:29;98942.91;;;9.87;85.60
80798;BME280;70202;52.238;10.680;2024-03-02T01:21:29;99049.75;;;10.52;85.60
80798;BME280;70202;52.238;10.680;2024-03-02T01:22:30;98965.00;;;9.96;85.37
80798;BME280;70202;52.238;10.680;2024-03-02T01:23:30;98999.47;;;10.12;85.31
80798;BME280;70202;52.238;10.680;2024-03-02T01:24:30;99065.22;;;10.51;85.41
80798;BME280;70202;52.238;10.680;2024-03-02T01:25:31;99007.75;;;10.26;85.57
80798;BME280;70202;52.238;10.680;2024-03-02T01:26:31;98995.34;;;10.05;85.68
80798;BME280;70202;52.238;10.680;2024-03-02T01:27:31;98952.63;;;9.91;85.68
80798;BME280;70202;52.238;10.680;2024-03-02T01:28:32;99010.78;;;10.20;85.70
80798;BME280;70202;52.238;10.680;2024-03-02T01:29:33;99050.91;;;10.48;85.41
80798;BME280;70202;52.238;10.680;2024-03-02T01:30:33;98969.28;;;10.00;85.86
80798;BME280;70202;52.238;10.680;2024-03-02T01:31:33;99000.19;;;10.15;85.54
80798;BME280;70202;52.238;10.680;2024-03-02T01:32:34;99001.13;;;10.14;85.39
80798;BME280;70202;52.238;10.680;2024-03-02T01:33:34;99062.75;;;10.47;85.81
80798;BME280;70202;52.238;10.680;2024-03-02T01:34:35;99013.41;;;10.21;85.65
80798;BME280;70202;52.238;10.680;2024-03-02T01:35:35;98951.50;;;9.79;85.85
80798;BME280;70202;52.238;10.680;2024-03-02T01:36:35;99011.06;;;10.15;85.96
80798;BME280;70202;52.238;10.680;2024-03-02T01:37:36;98940.06;;;9.72;85.48
80798;BME280;70202;52.238;10.680;2024-03-02T01:38:36;99050.66;;;10.37;85.85
80798;BME280;70202;52.238;10.680;2024-03-02T01:39:37;99038.28;;;10.31;86.28
80798;BME280;70202;52.238;10.680;2024-03-02T01:40:37;99057.59;;;10.42;86.06
80798;BME280;70202;52.238;10.680;2024-03-02T01:41:38;98958.50;;;9.83;85.83
80798;BME280;70202;52.238;10.680;2024-03-02T01:42:39;99051.28;;;10.42;86.30
80798;BME280;70202;52.238;10.680;2024-03-02T01:43:39;98877.69;;;9.39;85.49
80798;BME280;70202;52.238;10.680;2024-03-02T01:44:40;99059.28;;;10.45;85.88
80798;BME280;70202;52.238;10.680;2024-03-02T01:45:40;98960.88;;;9.89;86.11
80798;BME280;70202;52.238;10.680;2024-03-02T01:46:41;98943.16;;;9.82;85.87
80798;BME280;70202;52.238;10.680;2024-03-02T01:47:41;98956.13;;;9.93;85.94
80798;BME280;70202;52.238;10.680;2024-03-02T01:48:41;98959.56;;;9.96;85.53
80798;BME280;70202;52.238;10.680;2024-03-02T01:49:42;99052.66;;;10.49;85.95
80798;BME280;70202;52.238;10.680;2024-03-02T01:50:42;98972.09;;;9.99;85.78
80798;BME280;70202;52.238;10.680;2024-03-02T01:51:43;98955.53;;;9.88;85.72
80798;BME280;70202;52.238;10.680;2024-03-02T01:52:43;99009.81;;;10.21;85.38
80798;BME280;70202;52.238;10.680;2024-03-02T01:53:44;99019.44;;;10.28;85.29
80798;BME280;70202;52.238;10.680;2024-03-02T01:54:44;98846.38;;;9.32;85.44
80798;BME280;70202;52.238;10.680;2024-03-02T01:55:45;98900.28;;;9.56;85.64
80798;BME280;70202;52.238;10.680;2024-03-02T01:56:45;99053.56;;;10.49;85.49
80798;BME280;70202;52.238;10.680;2024-03-02T01:57:46;99015.09;;;10.24;85.23
80798;BME280;70202;52.238;10.680;2024-03-02T01:58:48;98980.72;;;9.91;85.25
80798;BME280;70202;52.238;10.680;2024-03-02T01:59:48;98934.47;;;9.75;85.00
80798;BME280;70202;52.238;10.680;2024-03-02T02:00:49;98976.13;;;9.92;85.43
80798;BME280;70202;52.238;10.680;2024-03-02T02:01:50;98951.84;;;9.89;85.37
80798;BME280;70202;52.238;10.680;2024-03-02T02:02:51;99056.72;;;10.42;85.59
80798;BME280;70202;52.238;10.680;2024-03-02T02:03:52;98962.09;;;9.84;85.50
80798;BME280;70202;52.238;10.680;2024-03-02T02:04:52;99038.22;;;10.33;85.37
80798;BME280;70202;52.238;10.680;2024-03-02T02:05:52;98976.13;;;9.92;85.47
80798;BME280;70202;52.238;10.680;2024-03-02T02:06:54;99042.50;;;10.37;85.74
80798;BME280;70202;52.238;10.680;2024-03-02T02:07:55;98968.16;;;9.89;85.59
80798;BME280;70202;52.238;10.680;2024-03-02T02:08:55;99045.03;;;10.40;85.59
80798;BME280;70202;52.238;10.680;2024-03-02T02:09:55;98956.34;;;9.90;85.42
80798;BME280;70202;52.238;10.680;2024-03-02T02:10:56;98996.50;;;10.16;85.88
80798;BME280;70202;52.238;10.680;2024-03-02T02:11:56;99033.72;;;10.32;85.89
80798;BME280;70202;52.238;10.680;2024-03-02T02:12:57;98948.41;;;9.85;85.86
80798;BME280;70202;52.238;10.680;2024-03-02T02:13:57;99031.78;;;10.34;85.86
80798;BME280;70202;52.238;10.680;2024-03-02T02:14:58;99040.72;;;10.36;85.46
80798;BME280;70202;52.238;10.680;2024-03-02T02:16:08;99030.03;;;10.33;85.67
80798;BME280;70202;52.238;10.680;2024-03-02T02:17:08;99030.22;;;10.30;85.39
80798;BME280;70202;52.238;10.680;2024-03-02T02:18:09;99012.63;;;10.19;85.44
80798;BME280;70202;52.238;10.680;2024-03-02T02:19:09;99043.44;;;10.36;85.98
80798;BME280;70202;52.238;10.680;2024-03-02T02:20:10;99042.84;;;10.31;85.76
80798;BME280;70202;52.238;10.680;2024-03-02T02:21:11;99054.06;;;10.40;86.17
80798;BME280;70202;52.238;10.680;2024-03-02T02:22:11;98952.47;;;9.78;85.80
80798;BME280;70202;52.238;10.680;2024-03-02T02:23:12;98936.50;;;9.72;86.02
80798;BME280;70202;52.238;10.680;2024-03-02T02:24:13;99052.50;;;10.36;86.14
80798;BME280;70202;52.238;10.680;2024-03-02T02:25:14;98992.78;;;10.01;86.34
80798;BME280;70202;52.238;10.680;2024-03-02T02:26:14;98963.84;;;9.85;86.17
80798;BME280;70202;52.238;10.680;2024-03-02T02:27:14;99062.22;;;10.40;85.58
80798;BME280;70202;52.238;10.680;2024-03-02T02:28:15;99050.47;;;10.40;85.68
80798;BME280;70202;52.238;10.680;2024-03-02T02:29:15;98966.13;;;9.76;85.77
80798;BME280;70202;52.238;10.680;2024-03-02T02:30:27;98874.25;;;9.36;86.13
80798;BME280;70202;52.238;10.680;2024-03-02T02:31:36;99052.31;;;10.39;86.02
80798;BME280;70202;52.238;10.680;2024-03-02T02:32:36;99058.63;;;10.40;85.47
80798;BME280;70202;52.238;10.680;2024-03-02T02:33:39;99042.31;;;10.24;86.12
80798;BME280;70202;52.238;10.680;2024-03-02T02:34:40;98963.84;;;9.85;86.45
80798;BME280;70202;52.238;10.680;2024-03-02T02:35:40;99015.59;;;10.15;86.28
80798;BME280;70202;52.238;10.680;2024-03-02T02:36:41;99048.13;;;10.34;86.07
80798;BME280;70202;52.238;10.680;2024-03-02T02:37:42;98951.66;;;9.76;86.19
80798;BME280;70202;52.238;10.680;2024-03-02T02:38:46;99013.78;;;10.15;85.99
80798;BME280;70202;52.238;10.680;2024-03-02T02:39:48;99056.19;;;10.35;86.32
80798;BME280;70202;52.238;10.680;2024-03-02T02:40:48;99054.72;;;10.30;85.72
80798;BME280;70202;52.238;10.680;2024-03-02T02:41:49;99048.38;;;10.29;85.97
80798;BME280;70202;52.238;10.680;2024-03-02T02:42:49;99030.28;;;10.12;85.60
80798;BME280;70202;52.238;10.680;2024-03-02T02:43:52;98857.34;;;9.15;85.91
80798;BME280;70202;52.238;10.680;2024-03-02T02:44:52;98975.44;;;9.72;86.02
80798;BME280;70202;52.238;10.680;2024-03-02T02:45:52;99032.03;;;10.13;86.44
80798;BME280;70202;52.238;10.680;2024-03-02T02:46:53;98866.19;;;9.18;85.86
80798;BME280;70202;52.238;10.680;2024-03-02T02:47:53;98987.56;;;9.83;85.69
80798;BME280;70202;52.238;10.680;2024-03-02T02:48:54;99054.97;;;10.25;86.36
80798;BME280;70202;52.238;10.680;2024-03-02T02:49:54;99063.13;;;10.25;85.84
80798;BME280;70202;52.238;10.680;2024-03-02T02:50:55;99060.91;;;10.32;85.93
80798;BME280;70202;52.238;10.680;2024-03-02T02:51:55;99048.47;;;10.27;85.92
80798;BME280;70202;52.238;10.680;2024-03-02T02:52:56;99038.78;;;10.22;86.13
80798;BME280;70202;52.238;10.680;2024-03-02T02:53:56;98962.03;;;9.69;86.42
80798;BME280;70202;52.238;10.680;2024-03-02T02:54:56;98958.25;;;9.72;86.29
80798;BME280;70202;52.238;10.680;2024-03-02T02:55:57;98957.97;;;9.76;85.91
80798;BME280;70202;52.238;10.680;2024-03-02T02:56:57;99031.34;;;10.25;86.52
80798;BME280;70202;52.238;10.680;2024-03-02T02:57:58;99044.69;;;10.30;86.21
80798;BME280;70202;52.238;10.680;2024-03-02T02:58:58;99042.84;;;10.31;86.49
80798;BME280;70202;52.238;10.680;2024-03-02T02:59:59;99026.78;;;10.26;86.41
80798;BME280;70202;52.238;10.680;2024-03-02T03:00:59;99038.09;;;10.34;86.43
80798;BME280;70202;52.238;10.680;2024-03-02T03:01:59;98973.59;;;9.89;86.19
80798;BME280;70202;52.238;10.680;2024-03-02T03:03:00;99020.72;;;10.21;86.21
80798;BME280;70202;52.238;10.680;2024-03-02T03:04:00;98977.81;;;9.94;86.16
80798;BME280;70202;52.238;10.680;2024-03-02T03:05:00;99042.56;;;10.35;86.36
80798;BME280;70202;52.238;10.680;2024-03-02T03:06:01;99054.44;;;10.34;86.00
80798;BME280;70202;52.238;10.680;2024-03-02T03:07:02;98933.50;;;9.76;86.08
80798;BME280;70202;52.238;10.680;2024-03-02T03:08:02;99045.03;;;10.40;86.16
80798;BME280;70202;52.238;10.680;2024-03-02T03:09:03;99032.06;;;10.29;85.97
80798;BME280;70202;52.238;10.680;2024-03-02T03:10:04;98960.44;;;9.81;86.22
80798;BME280;70202;52.238;10.680;2024-03-02T03:11:04;98965.16;;;9.93;86.70
80798;BME280;70202;52.238;10.680;2024-03-02T03:12:05;98927.13;;;9.77;86.36
80798;BME280;70202;52.238;10.680;2024-03-02T03:13:05;98874.75;;;9.42;86.04
80798;BME280;70202;52.238;10.680;2024-03-02T03:14:08;99012.09;;;10.13;86.46
80798;BME280;70202;52.238;10.680;2024-03-02T03:15:11;98954.13;;;9.96;85.86
80798;BME280;70202;52.238;10.680;2024-03-02T03:16:12;99015.25;;;10.21;86.18
80798;BME280;70202;52.238;10.680;2024-03-02T03:17:13;98973.69;;;10.03;85.92
80798;BME280;70202;52.238;10.680;2024-03-02T03:18:13;98994.63;;;10.17;86.10
80798;BME280;70202;52.238;10.680;2024-03-02T03:19:13;99022.38;;;10.39;86.42
80798;BME280;70202;52.238;10.680;2024-03-02T03:20:14;99041.69;;;10.50;86.33
80798;BME280;70202;52.238;10.680;2024-03-02T03:21:15;99003.97;;;10.29;85.93
80798;BME280;70202;52.238;10.680;2024-03-02T03:22:16;99020.97;;;10.32;86.32
80798;BME280;70202;52.238;10.680;2024-03-02T03:23:16;99015.97;;;10.40;86.44
80798;BME280;70202;52.238;10.680;2024-03-02T03:24:17;98941.66;;;9.92;86.15
80798;BME280;70202;52.238;10.680;2024-03-02T03:25:17;99045.19;;;10.52;85.89
80798;BME280;70202;52.238;10.680;2024-03-02T03:26:18;99027.38;;;10.47;86.09
80798;BME280;70202;52.238;10.680;2024-03-02T03:27:18;98947.00;;;9.94;85.83
80798;BME280;70202;52.238;10.680;2024-03-02T03:28:19;99009.75;;;10.38;86.03
80798;BME280;70202;52.238;10.680;2024-03-02T03:29:20;99041.75;;;10.49;86.14
80798;BME280;70202;52.238;10.680;2024-03-02T03:30:20;99017.47;;;10.46;85.89
80798;BME280;70202;52.238;10.680;2024-03-02T03:31:21;99027.97;;;10.52;85.96
80798;BME280;70202;52.238;10.680;2024-03-02T03:32:21;98956.38;;;10.04;86.24
80798;BME280;70202;52.238;10.680;2024-03-02T03:33:22;98873.28;;;9.52;86.21
80798;BME280;70202;52.238;10.680;2024-03-02T03:34:22;98912.88;;;9.88;86.12
80798;BME280;70202;52.238;10.680;2024-03-02T03:35:22;98937.63;;;9.99;85.75
80798;BME280;70202;52.238;10.680;2024-03-02T03:36:23;99023.59;;;10.49;85.70
80798;BME280;70202;52.238;10.680;2024-03-02T03:37:23;99034.81;;;10.59;86.13
80798;BME280;70202;52.238;10.680;2024-03-02T03:38:25;99018.06;;;10.51;86.58
80798;BME280;70202;52.238;10.680;2024-03-02T03:39:26;98970.25;;;10.15;86.12
80798;BME280;70202;52.238;10.680;2024-03-02T03:40:26;98862.31;;;9.54;85.72
80798;BME280;70202;52.238;10.680;2024-03-02T03:41:27;99019.72;;;10.54;86.17
80798;BME280;70202;52.238;10.680;2024-03-02T03:42:27;99026.66;;;10.59;85.71
80798;BME280;70202;52.238;10.680;2024-03-02T03:43:27;99017.19;;;10.50;85.57
80798;BME280;70202;52.238;10.680;2024-03-02T03:44:28;99010.94;;;10.48;85.69
80798;BME280;70202;52.238;10.680;2024-03-02T03:45:28;98990.50;;;10.41;85.97
80798;BME280;70202;52.238;10.680;2024-03-02T03:46:29;99002.78;;;10.48;85.73
80798;BME280;70202;52.238;10.680;2024-03-02T03:47:31;98866.06;;;9.67;86.12
80798;BME280;70202;52.238;10.680;2024-03-02T03:48:31;98986.22;;;10.37;86.07
80798;BME280;70202;52.238;10.680;2024-03-02T03:49:32;99014.00;;;10.58;85.78
80798;BME280;70202;52.238;10.680;2024-03-02T03:50:32;98987.59;;;10.44;85.55
80798;BME280;70202;52.238;10.680;2024-03-02T03:51:33;99029.00;;;10.65;85.19
80798;BME280;70202;52.238;10.680;2024-03-02T03:52:33;99021.47;;;10.55;85.61
80798;BME280;70202;52.238;10.680;2024-03-02T03:53:34;98887.28;;;9.76;85.46
80798;BME280;70202;52.238;10.680;2024-03-02T03:54:34;99001.28;;;10.59;85.70
80798;BME280;70202;52.238;10.680;2024-03-02T03:55:37;99022.41;;;10.69;85.45
80798;BME280;70202;52.238;10.680;2024-03-02T03:56:37;98954.72;;;10.33;85.48
80798;BME280;70202;52.238;10.680;2024-03-02T03:57:38;98971.63;;;10.38;85.61
80798;BME280;70202;52.238;10.680;2024-03-02T03:58:38;99008.28;;;10.63;85.58
80798;BME280;70202;52.238;10.680;2024-03-02T03:59:38;98993.97;;;10.59;85.56
80798;BME280;70202;52.238;10.680;2024-03-02T04:00:39;99011.59;;;10.68;85.51
80798;BME280;70202;52.238;10.680;2024-03-02T04:01:39;98961.28;;;10.45;85.88
80798;BME280;70202;52.238;10.680;2024-03-02T04:02:40;99012.09;;;10.74;85.33
80798;BME280;70202;52.238;10.680;2024-03-02T04:03:40;98949.53;;;10.29;85.25
80798;BME280;70202;52.238;10.680;2024-03-02T04:04:40;98997.81;;;10.71;85.56
80798;BME280;70202;52.238;10.680;2024-03-02T04:05:41;98941.09;;;10.33;85.48
80798;BME280;70202;52.238;10.680;2024-03-02T04:06:41;98960.84;;;10.37;85.40
80798;BME280;70202;52.238;10.680;2024-03-02T04:07:42;98901.31;;;10.15;85.33
80798;BME280;70202;52.238;10.680;2024-03-02T04:08:43;98888.56;;;10.01;84.88
80798;BME280;70202;52.238;10.680;2024-03-02T04:09:43;98969.06;;;10.51;85.76
80798;BME280;70202;52.238;10.680;2024-03-02T04:10:43;98922.66;;;10.22;85.56
80798;BME280;70202;52.238;10.680;2024-03-02T04:11:44;98974.13;;;10.57;85.25
80798;BME280;70202;52.238;10.680;2024-03-02T04:12:44;98994.00;;;10.73;85.39
80798;BME280;70202;52.238;10.680;2024-03-02T04:13:45;98928.00;;;10.24;85.60
80798;BME280;70202;52.238;10.680;2024-03-02T04:14:45;98947.31;;;10.35;85.46
80798;BME280;70202;52.238;10.680;2024-03-02T04:15:46;98976.38;;;10.65;85.51
80798;BME280;70202;52.238;10.680;2024-03-02T04:16:46;98928.44;;;10.32;85.35
80798;BME280;70202;52.238;10.680;2024-03-02T04:17:46;99007.34;;;10.78;85.49
80798;BME280;70202;52.238;10.680;2024-03-02T04:18:47;98998.22;;;10.79;85.51
80798;BME280;70202;52.238;10.680;2024-03-02T04:19:47;99005.91;;;10.87;85.30
80798;BME280;70202;52.238;10.680;2024-03-02T04:20:48;99004.16;;;10.86;84.92
80798;BME280;70202;52.238;10.680;2024-03-02T04:21:48;99009.25;;;10.92;85.07
80798;BME280;70202;52.238;10.680;2024-03-02T04:22:48;99000.66;;;10.84;85.12
80798;BME280;70202;52.238;10.680;2024-03-02T04:23:49;98991.81;;;10.80;85.08
80798;BME280;70202;52.238;10.680;2024-03-02T04:24:49;99000.47;;;10.87;85.11
80798;BME280;70202;52.238;10.680;2024-03-02T04:25:50;98999.59;;;10.86;85.41
80798;BME280;70202;52.238;10.680;2024-03-02T04:26:50;98996.97;;;10.85;84.98
80798;BME280;70202;52.238;10.680;2024-03-02T04:27:50;99009.16;;;10.93;85.51
80798;BME280;70202;52.238;10.680;2024-03-02T04:28:51;98976.63;;;10.76;85.35
80798;BME280;70202;52.238;10.680;2024-03-02T04:29:52;99019.94;;;10.95;85.29
80798;BME280;70202;52.238;10.680;2024-03-02T04:30:52;98936.25;;;10.38;85.32
80798;BME280;70202;52.238;10.680;2024-03-02T04:31:52;98913.69;;;10.36;85.36
80798;BME280;70202;52.238;10.680;2024-03-02T04:32:53;98985.66;;;10.76;85.08
80798;BME280;70202;52.238;10.680;2024-03-02T04:33:53;98996.16;;;10.83;85.59
80798;BME280;70202;52.238;10.680;2024-03-02T04:34:54;99010.31;;;10.89;85.37
80798;BME280;70202;52.238;10.680;2024-03-02T04:35:54;98958.94;;;10.53;85.16
80798;BME280;70202;52.238;10.680;2024-03-02T04:36:55;99005.03;;;10.86;85.43
80798;BME280;70202;52.238;10.680;2024-03-02T04:37:55;99008.28;;;10.93;85.13
80798;BME280;70202;52.238;10.680;2024-03-02T04:38:55;98901.72;;;10.24;85.06
80798;BME280;70202;52.238;10.680;2024-03-02T04:39:56;98933.81;;;10.34;85.11
80798;BME280;70202;52.238;10.680;2024-03-02T04:40:57;99031.91;;;10.92;85.37
80798;BME280;70202;52.238;10.680;2024-03-02T04:41:57;98990.50;;;10.71;85.36
80798;BME280;70202;52.238;10.680;2024-03-02T04:42:58;99023.06;;;10.89;84.91
80798;BME280;70202;52.238;10.680;2024-03-02T04:44:02;98943.44;;;10.39;85.44
80798;BME280;70202;52.238;10.680;2024-03-02T04:45:03;98991.28;;;10.73;85.16
80798;BME280;70202;52.238;10.680;2024-03-02T04:46:05;98884.69;;;10.05;85.07
80798;BME280;70202;52.238;10.680;2024-03-02T04:47:05;99030.25;;;10.90;84.93
80798;BME280;70202;52.238;10.680;2024-03-02T04:48:06;99002.00;;;10.76;84.95
80798;BME280;70202;52.238;10.680;2024-03-02T04:49:06;99027.53;;;10.90;84.94
80798;BME280;70202;52.238;10.680;2024-03-02T04:50:07;99025.78;;;10.89;85.11
80798;BME280;70202;52.238;10.680;2024-03-02T04:51:07;98853.59;;;9.79;84.61
80798;BME280;70202;52.238;10.680;2024-03-02T04:52:08;99033.06;;;10.88;85.13
80798;BME280;70202;52.238;10.680;2024-03-02T04:53:08;98971.53;;;10.40;84.53
80798;BME280;70202;52.238;10.680;2024-03-02T04:54:09;99016.31;;;10.80;84.93
80798;BME280;70202;52.238;10.680;2024-03-02T04:55:09;98950.22;;;10.32;84.81
80798;BME280;70202;52.238;10.680;2024-03-02T04:56:10;99038.69;;;10.85;84.69
80798;BME280;70202;52.238;10.680;2024-03-02T04:57:30;98934.59;;;10.20;85.00
80798;BME280;70202;52.238;10.680;2024-03-02T04:58:30;99031.78;;;10.80;84.91
80798;BME280;70202;52.238;10.680;2024-03-02T04:59:31;98935.28;;;10.23;84.93
80798;BME280;70202;52.238;10.680;2024-03-02T05:00:31;98930.59;;;10.11;84.98
80798;BME280;70202;52.238;10.680;2024-03-02T05:01:32;98933.81;;;10.18;84.79
80798;BME280;70202;52.238;10.680;2024-03-02T05:02:33;98986.81;;;10.42;84.96
80798;BME280;70202;52.238;10.680;2024-03-02T05:03:34;99051.03;;;10.76;84.62
80798;BME280;70202;52.238;10.680;2024-03-02T05:04:35;99033.13;;;10.72;85.09
80798;BME280;70202;52.238;10.680;2024-03-02T05:05:35;99027.84;;;10.69;85.19
80798;BME280;70202;52.238;10.680;2024-03-02T05:06:40;99026.28;;;10.65;85.09
80798;BME280;70202;52.238;10.680;2024-03-02T05:07:41;99039.44;;;10.73;85.05
80798;BME280;70202;52.238;10.680;2024-03-02T05:08:42;98876.41;;;9.76;84.99
80798;BME280;70202;52.238;10.680;2024-03-02T05:09:45;99029.09;;;10.64;85.32
80798;BME280;70202;52.238;10.680;2024-03-02T05:10:45;99017.59;;;10.59;85.40
80798;BME280;70202;52.238;10.680;2024-03-02T05:11:46;99026.81;;;10.56;84.83
80798;BME280;70202;52.238;10.680;2024-03-02T05:13:03;99010.88;;;10.50;85.22
80798;BME280;70202;52.238;10.680;2024-03-02T05:14:07;99044.38;;;10.66;85.23
80798;BME280;70202;52.238;10.680;2024-03-02T05:15:07;98994.56;;;10.34;84.97
80798;BME280;70202;52.238;10.680;2024-03-02T05:16:08;99037.66;;;10.58;85.15
80798;BME280;70202;52.238;10.680;2024-03-02T05:17:08;98995.25;;;10.38;85.03
80798;BME280;70202;52.238;10.680;2024-03-02T05:18:08;99015.63;;;10.46;85.04
80798;BME280;70202;52.238;10.680;2024-03-02T05:19:09;98924.19;;;9.96;85.31
80798;BME280;70202;52.238;10.680;2024-03-02T05:20:10;99028.84;;;10.52;85.28
80798;BME280;70202;52.238;10.680;2024-03-02T05:21:10;99017.34;;;10.47;85.19